Time;durP1;ratioP1;P1;durP2;ratioP2;P2;SDS_P1;SDS_P2;PMS_P1;PMS_P2;Temp;Humidity;BMP_temperature;BMP_pressure;BME280_temperature;BME280_humidity;BME280_pressure;Samples;Min_cycle;Max_cycle;Signal;HPM_P1;HPM_P2
2021/04/06 00:08:59;;;;;;;6.45;1.95;;;1.20;99.90;;;;;;20846607;28;20492;-78
2021/04/06 00:19:02;;;;;;;6.38;2.30;;;1.30;99.90;;;;;;20843640;28;20384;-78
2021/04/06 00:29:03;;;;;;;5.05;2.30;;;1.40;99.90;;;;;;20840552;28;20042;-77
2021/04/06 00:39:05;;;;;;;8.45;2.60;;;1.40;99.90;;;;;;20838998;28;20496;-77
2021/04/06 00:49:06;;;;;;;10.90;3.40;;;1.30;99.90;;;;;;20834101;28;20036;-77
2021/04/06 00:59:20;;;;;;;10.60;2.05;;;1.30;99.90;;;;;;20835208;28;20030;-79
2021/04/06 01:10:02;;;;;;;7.60;3.05;;;1.00;99.90;;;;;;20842758;28;20654;-77
2021/04/06 01:20:09;;;;;;;6.17;2.23;;;0.90;99.90;;;;;;20826111;28;20079;-78
2021/04/06 01:30:11;;;;;;;5.82;2.20;;;0.90;99.90;;;;;;20850570;28;20048;-77
2021/04/06 01:40:12;;;;;;;10.40;2.53;;;0.50;99.90;;;;;;20845256;28;20037;-77
2021/04/06 01:50:14;;;;;;;8.23;2.60;;;0.60;99.90;;;;;;20849178;28;20119;-78
2021/04/06 02:10:40;;;;;;;7.90;2.42;;;-0.10;99.90;;;;;;20806773;28;20500;-76
2021/04/06 02:20:54;;;;;;;8.13;2.55;;;0.00;99.90;;;;;;20833762;28;20045;-76
2021/04/06 02:31:01;;;;;;;12.45;2.63;;;-0.50;99.90;;;;;;20838544;28;20171;-77
2021/04/06 02:41:08;;;;;;;9.98;2.40;;;-0.50;99.90;;;;;;20834994;28;20029;-78
2021/04/06 02:51:10;;;;;;;4.07;2.47;;;-0.30;99.90;;;;;;20837031;28;20025;-77
2021/04/06 03:01:18;;;;;;;9.95;2.95;;;-0.70;99.90;;;;;;20835489;28;20025;-78
2021/04/06 03:11:19;;;;;;;11.43;2.95;;;-1.20;99.90;;;;;;20831116;28;20056;-76
2021/04/06 03:21:24;;;;;;;5.63;3.00;;;-0.90;99.90;;;;;;20962312;23;20135;-75
2021/04/06 03:31:28;;;;;;;9.32;3.85;;;-1.30;99.90;;;;;;20949835;28;20029;-75
2021/04/06 03:41:30;;;;;;;4.43;2.55;;;-1.50;99.90;;;;;;20893770;28;20032;-75
2021/04/06 03:51:31;;;;;;;11.95;3.40;;;-1.20;99.90;;;;;;20919257;28;20223;-76
2021/04/06 04:01:32;;;;;;;6.72;3.45;;;-1.00;99.90;;;;;;20921404;28;20256;-76
2021/04/06 04:11:33;;;;;;;8.35;3.38;;;-1.60;99.90;;;;;;20920421;28;20041;-73
2021/04/06 04:21:37;;;;;;;7.43;3.40;;;-1.90;99.90;;;;;;20919392;28;20450;-74
2021/04/06 04:31:38;;;;;;;5.43;2.95;;;-1.70;99.90;;;;;;20920171;28;20028;-73
2021/04/06 04:41:38;;;;;;;6.07;3.28;;;-1.90;99.90;;;;;;20918873;28;20032;-73
2021/04/06 04:51:39;;;;;;;8.43;3.75;;;-2.20;99.90;;;;;;20927308;28;20048;-74
2021/04/06 05:01:40;;;;;;;9.00;2.78;;;-2.10;99.90;;;;;;20924928;28;20467;-74
2021/04/06 05:11:41;;;;;;;5.82;2.60;;;-1.90;99.90;;;;;;20916332;28;20398;-74
2021/04/06 05:21:42;;;;;;;11.25;2.65;;;-2.50;99.90;;;;;;20915519;28;20032;-74
2021/04/06 05:31:43;;;;;;;10.32;3.30;;;-2.10;99.90;;;;;;20839354;28;20060;-76
2021/04/06 05:41:46;;;;;;;13.07;3.13;;;-1.90;99.90;;;;;;20814357;28;20029;-76
2021/04/06 05:51:47;;;;;;;11.77;2.47;;;-1.60;99.90;;;;;;20830718;28;20037;-76
2021/04/06 06:01:48;;;;;;;5.50;2.50;;;-0.90;99.90;;;;;;20795151;28;20634;-76
2021/04/06 06:12:17;;;;;;;11.52;3.80;;;-0.30;99.90;;;;;;20828530;28;20484;-76
2021/04/06 06:22:26;;;;;;;6.10;3.08;;;-0.30;99.90;;;;;;20826502;28;20517;-76
2021/04/06 06:32:26;;;;;;;11.23;2.72;;;-0.10;99.90;;;;;;20826834;28;20136;-77
2021/04/06 06:42:33;;;;;;;9.45;3.58;;;0.30;99.90;;;;;;20809617;28;20030;-76
2021/04/06 06:52:34;;;;;;;11.82;2.70;;;0.50;99.90;;;;;;20827156;28;20032;-77
2021/04/06 07:02:35;;;;;;;12.98;3.22;;;0.80;99.90;;;;;;20808199;28;20075;-76
2021/04/06 07:12:36;;;;;;;11.45;2.10;;;1.20;99.90;;;;;;20809125;28;20044;-76
2021/04/06 07:22:40;;;;;;;5.47;2.17;;;1.60;99.90;;;;;;20823987;28;20044;-76
2021/04/06 07:32:41;;;;;;;3.60;1.80;;;1.60;99.90;;;;;;20826437;28;20074;-76
2021/04/06 07:42:45;;;;;;;4.75;1.98;;;1.70;99.90;;;;;;20827498;28;20467;-76
2021/04/06 07:52:46;;;;;;;13.50;3.33;;;1.90;99.90;;;;;;20824811;28;20044;-76
2021/04/06 08:02:46;;;;;;;;;;;2.40;99.90;;;;;;20807388;28;20053;-76
2021/04/06 08:12:48;;;;;;;20.92;3.10;;;2.80;99.90;;;;;;20830573;28;19913;-76
2021/04/06 08:22:55;;;;;;;7.63;2.42;;;3.00;99.90;;;;;;20822921;28;20048;-77
2021/04/06 08:32:59;;;;;;;22.95;3.20;;;3.00;99.90;;;;;;20838375;28;20559;-77
2021/04/06 08:43:00;;;;;;;15.82;2.17;;;3.60;99.90;;;;;;20819641;28;20041;-77
2021/04/06 08:53:03;;;;;;;4.57;0.90;;;4.20;99.90;;;;;;20840096;28;20029;-77
2021/04/06 09:03:06;;;;;;;5.82;0.98;;;4.70;99.90;;;;;;20804254;28;20030;-77
2021/04/06 09:13:07;;;;;;;6.78;1.30;;;4.40;99.90;;;;;;20830938;28;20057;-77
2021/04/06 09:23:08;;;;;;;7.40;1.02;;;5.30;99.90;;;;;;20774308;23;20085;-77
2021/04/06 09:33:20;;;;;;;4.50;1.30;;;5.90;99.90;;;;;;20748772;28;20484;-76
2021/04/06 09:43:21;;;;;;;4.10;1.20;;;6.40;99.90;;;;;;20731008;28;20040;-77
2021/04/06 09:53:22;;;;;;;6.93;1.17;;;6.00;99.90;;;;;;20747575;28;20467;-76
2021/04/06 10:03:26;;;;;;;5.57;1.33;;;6.20;99.90;;;;;;20729113;28;20038;-76
2021/04/06 10:13:27;;;;;;;4.07;1.40;;;5.10;99.90;;;;;;20745921;28;20277;-76
2021/04/06 10:23:33;;;;;;;3.73;1.43;;;5.70;99.90;;;;;;20745525;28;20064;-77
2021/04/06 10:33:38;;;;;;;3.20;0.82;;;5.70;99.90;;;;;;20711075;28;20391;-75
2021/04/06 10:43:50;;;;;;;2.33;0.85;;;5.80;99.90;;;;;;20726482;28;20044;-76
2021/04/06 10:53:57;;;;;;;3.13;0.80;;;7.10;99.90;;;;;;20726281;28;20037;-76
2021/04/06 11:03:59;;;;;;;1.23;0.68;;;6.30;99.90;;;;;;20709327;28;20033;-76
2021/04/06 11:14:03;;;;;;;3.33;1.02;;;7.30;99.90;;;;;;20724903;28;20153;-76
2021/04/06 11:24:05;;;;;;;2.83;0.70;;;6.80;99.90;;;;;;20742529;28;20038;-76
2021/04/06 11:34:07;;;;;;;5.25;0.95;;;6.10;99.90;;;;;;20742373;28;20029;-75
2021/04/06 11:44:08;;;;;;;7.38;1.15;;;6.10;99.90;;;;;;20723965;28;20053;-75
2021/04/06 11:54:11;;;;;;;3.67;1.00;;;5.90;99.90;;;;;;20752563;28;20057;-75
2021/04/06 12:04:13;;;;;;;5.65;1.30;;;6.40;99.90;;;;;;20738370;28;20038;-75
2021/04/06 12:14:14;;;;;;;4.43;1.30;;;6.30;99.90;;;;;;20737648;28;20172;-75
2021/04/06 12:24:16;;;;;;;4.17;1.37;;;7.10;99.90;;;;;;20720550;28;20076;-74
2021/04/06 12:34:17;;;;;;;3.28;1.40;;;6.10;99.90;;;;;;20753298;28;20057;-75
2021/04/06 12:44:18;;;;;;;4.87;1.00;;;7.20;99.90;;;;;;20731123;28;20084;-75
2021/04/06 12:54:19;;;;;;;2.47;0.83;;;6.30;99.90;;;;;;20726571;28;20397;-77
2021/04/06 13:04:20;;;;;;;14.37;1.40;;;5.60;99.90;;;;;;20731028;28;20022;-76
2021/04/06 13:14:20;;;;;;;4.90;1.00;;;6.20;99.90;;;;;;20688363;28;20137;-76
2021/04/06 13:24:21;;;;;;;3.37;1.40;;;5.70;99.90;;;;;;20636247;28;20460;-76
2021/04/06 13:34:24;;;;;;;2.83;1.20;;;6.30;99.90;;;;;;20633231;28;20037;-76
2021/04/06 13:44:25;;;;;;;6.93;1.45;;;5.50;99.90;;;;;;20637063;28;20030;-74
2021/04/06 13:54:25;;;;;;;5.43;1.30;;;5.40;99.90;;;;;;20712599;28;20049;-76
2021/04/06 14:04:26;;;;;;;8.67;2.13;;;4.70;99.90;;;;;;20712649;28;20037;-75
2021/04/06 14:14:27;;;;;;;4.43;1.47;;;4.90;99.90;;;;;;20730721;28;20413;-75
2021/04/06 14:24:28;;;;;;;8.50;1.77;;;4.50;99.90;;;;;;20720915;28;21974;-75
2021/04/06 14:34:29;;;;;;;11.47;2.97;;;3.90;99.90;;;;;;20717902;28;20036;-75
2021/04/06 14:44:29;;;;;;;3.57;1.43;;;3.50;99.90;;;;;;20708812;28;20022;-76
2021/04/06 14:54:31;;;;;;;5.77;1.90;;;3.50;99.90;;;;;;20726324;28;20025;-76
2021/04/06 15:04:34;;;;;;;4.97;1.95;;;3.40;99.90;;;;;;20707641;28;20030;-76
2021/04/06 15:24:42;;;;;;;6.07;1.52;;;1.60;99.90;;;;;;20731617;28;20132;-77
2021/04/06 15:34:51;;;;;;;2.97;1.45;;;3.60;99.90;;;;;;20830841;28;20034;-77
2021/04/06 15:44:56;;;;;;;2.38;1.35;;;4.30;99.90;;;;;;20832751;28;20037;-78
2021/04/06 15:54:58;;;;;;;0.60;0.60;;;4.00;99.90;;;;;;20832007;28;20092;-78
2021/04/06 16:04:59;;;;;;;3.08;0.77;;;2.10;99.90;;;;;;20827148;28;20152;-77
2021/04/06 16:14:59;;;;;;;;;;;2.10;99.90;;;;;;20826434;28;20060;-77
2021/04/06 16:25:00;;;;;;;2.22;1.13;;;0.60;99.90;;;;;;20836507;28;20024;-77
2021/04/06 16:35:03;;;;;;;4.75;1.45;;;1.60;99.90;;;;;;20831277;28;20111;-77
2021/04/06 16:45:04;;;;;;;6.13;1.20;;;1.90;99.90;;;;;;20826773;28;20025;-78
2021/04/06 16:55:06;;;;;;;7.55;2.97;;;2.10;99.90;;;;;;20823416;28;20044;-78
2021/04/06 17:05:07;;;;;;;4.90;1.42;;;2.00;99.90;;;;;;20823686;28;20037;-78
2021/04/06 17:15:09;;;;;;;;;;;1.80;99.90;;;;;;20860163;28;20440;-77
2021/04/06 17:25:12;;;;;;;;;;;1.60;99.90;;;;;;20903935;28;19936;-77
2021/04/06 17:35:15;;;;;;;2.67;1.38;;;1.70;99.90;;;;;;20836965;28;19913;-78
2021/04/06 17:45:18;;;;;;;8.55;1.60;;;1.90;99.90;;;;;;20777747;28;20029;-78
2021/04/06 17:55:19;;;;;;;5.60;1.55;;;1.70;99.90;;;;;;20820257;28;20061;-78
2021/04/06 18:05:20;;;;;;;12.20;5.63;;;1.00;99.90;;;;;;20800207;28;20567;-78
2021/04/06 18:15:22;;;;;;;4.95;3.17;;;0.60;99.90;;;;;;20825397;28;20038;-77
2021/04/06 18:25:25;;;;;;;8.82;5.35;;;0.40;99.90;;;;;;20813579;28;20056;-77
2021/04/06 18:35:26;;;;;;;4.25;2.70;;;0.40;99.90;;;;;;20821559;28;20044;-77
2021/04/06 18:45:28;;;;;;;8.05;3.55;;;0.30;99.90;;;;;;20831582;28;20503;-78
2021/04/06 18:55:29;;;;;;;7.40;4.47;;;0.10;99.90;;;;;;20839536;28;20041;-77
2021/04/06 19:05:30;;;;;;;7.15;3.00;;;0.00;99.90;;;;;;20908659;28;20124;-79
2021/04/06 19:15:35;;;;;;;5.05;2.00;;;0.10;99.90;;;;;;20922326;28;20052;-78
2021/04/06 19:25:36;;;;;;;4.05;2.45;;;0.40;99.90;;;;;;20913968;28;20398;-78
2021/04/06 19:35:38;;;;;;;9.85;3.20;;;0.40;99.90;;;;;;20798066;28;20117;-79
2021/04/06 19:45:38;;;;;;;9.52;2.95;;;0.50;99.90;;;;;;20728671;28;20447;-78
2021/04/06 19:55:44;;;;;;;5.70;3.38;;;0.20;99.90;;;;;;20727259;28;20042;-80
2021/04/06 20:05:45;;;;;;;5.65;3.83;;;0.20;99.90;;;;;;20791833;28;20048;-77
2021/04/06 20:15:49;;;;;;;11.48;3.17;;;0.10;99.90;;;;;;20847708;28;20040;-78
2021/04/06 20:25:53;;;;;;;7.07;3.95;;;0.00;99.90;;;;;;20857907;28;20033;-77
2021/04/06 20:35:54;;;;;;;3.60;3.00;;;0.00;99.90;;;;;;20842915;28;20098;-78
2021/04/06 20:45:55;;;;;;;11.52;3.42;;;0.00;99.90;;;;;;20783676;28;20400;-76
2021/04/06 20:56:00;;;;;;;8.15;4.20;;;-0.10;99.90;;;;;;20790751;28;20087;-79
2021/04/06 21:06:02;;;;;;;8.07;4.38;;;-0.10;99.90;;;;;;20774150;28;20116;-79
2021/04/06 21:16:03;;;;;;;11.38;4.63;;;-0.10;99.90;;;;;;20866799;23;20045;-74
2021/04/06 21:26:04;;;;;;;6.07;3.72;;;-0.10;99.90;;;;;;20970698;28;20032;-76
2021/04/06 21:36:05;;;;;;;6.28;4.07;;;-0.10;99.90;;;;;;20896327;28;20111;-78
2021/04/06 21:46:09;;;;;;;15.77;4.05;;;0.00;99.90;;;;;;20873284;28;20399;-76
2021/04/06 21:56:10;;;;;;;7.60;4.20;;;0.00;99.90;;;;;;20875533;28;20032;-75
2021/04/06 22:06:11;;;;;;;7.30;3.92;;;0.00;99.90;;;;;;20964941;28;20032;-76
2021/04/06 22:16:11;;;;;;;10.35;4.90;;;0.00;99.90;;;;;;20991337;28;20148;-77
2021/04/06 22:26:13;;;;;;;10.68;3.67;;;0.00;99.90;;;;;;20992344;28;20024;-77
2021/04/06 22:36:16;;;;;;;8.60;4.50;;;-0.10;99.90;;;;;;20990522;28;20032;-77
2021/04/06 22:46:17;;;;;;;7.05;4.47;;;-0.20;99.90;;;;;;20990270;28;20468;-77
2021/04/06 22:56:18;;;;;;;16.52;6.32;;;-0.20;99.90;;;;;;20991352;28;20032;-78
2021/04/06 23:06:19;;;;;;;9.93;5.45;;;-0.30;99.90;;;;;;20989208;28;20037;-77
2021/04/06 23:16:20;;;;;;;13.50;5.95;;;-0.30;99.90;;;;;;20989997;28;20433;-76
2021/04/06 23:26:21;;;;;;;12.43;6.30;;;-0.30;99.90;;;;;;20991118;28;20081;-78
2021/04/06 23:36:22;;;;;;;13.38;6.28;;;-0.40;99.90;;;;;;20989609;28;20394;-78
2021/04/06 23:46:22;;;;;;;12.45;5.65;;;-0.50;99.90;;;;;;20994902;28;20102;-78
2021/04/06 23:56:23;;;;;;;18.75;6.45;;;-0.50;99.90;;;;;;21004582;28;20484;-77
